PWSweather.com
Personal Weather Stations
Station Observations
IONTARIO88
Lincoln, ON L0R

Lincoln, ON L0R

Lat: 43.1763563, Lon: -79.4719525

Elevation: 297

Station Type: Davis Vantage Pro 2 Plus

http://www.beamsvillewx.ca

High Low Average
Temperature 35.8°F2.1°C 21.9°F-5.6°C 29.4°F-1.4°C
Dew Point 27.2°F-2.7°C 18.5°F-7.5°C 22.8°F-5.1°C
Winds 5.0 mph 8.0 kmh Calm Calm 2.0 mph SE3.2 kmh SE
Wind Gusts 12.0 mph19.3 kmh -- 5.0 mph8.0 kmh
Humidity 87% 61% 76%
Pressure 30.08 in1018.6 mb 30.04 in1017.3 mb -
Precipitation 0.00 in0.0 mm - -
Hour Temp Dew Point Humidity Winds Wind Gusts Pressure Precip Precip Rate Daily Precip Total
12:00 AM 25.5°F-3.6°C 19.9°F-6.7°C 79% 1.0 mph NE1.6 kmh NE 3.0 mph4.8 kmh 30.08 in1018.6 mb 0.00 in0.0 mm 0.00 in0.0 mm 0.00 in0.0 mm
12:15 AM 25.3°F-3.7°C 19.7°F-6.8°C 79% 2.0 mph NE3.2 kmh NE 4.0 mph6.4 kmh 30.08 in1018.6 mb 0.00 in0.0 mm 0.00 in0.0 mm 0.00 in0.0 mm
12:30 AM 25.2°F-3.8°C 19.9°F-6.7°C 80% 1.0 mph NE1.6 kmh NE 3.0 mph4.8 kmh 30.08 in1018.6 mb 0.00 in0.0 mm 0.00 in0.0 mm 0.00 in0.0 mm
12:45 AM 25.0°F-3.9°C 19.7°F-6.8°C 80% 1.0 mph NE1.6 kmh NE 3.0 mph4.8 kmh 30.08 in1018.6 mb 0.00 in0.0 mm 0.00 in0.0 mm 0.00 in0.0 mm
01:00 AM 24.8°F-4.0°C 19.8°F-6.8°C 81% 1.0 mph NE1.6 kmh NE 3.0 mph4.8 kmh 30.07 in1018.3 mb 0.00 in0.0 mm 0.00 in0.0 mm 0.00 in0.0 mm
01:15 AM 25.2°F-3.8°C 20.1°F-6.6°C 81% 1.0 mph NE1.6 kmh NE 3.0 mph4.8 kmh 30.07 in1018.3 mb 0.00 in0.0 mm 0.00 in0.0 mm 0.00 in0.0 mm
01:30 AM 25.0°F-3.9°C 20.3°F-6.5°C 82% 1.0 mph NE1.6 kmh NE 3.0 mph4.8 kmh 30.07 in1018.3 mb 0.00 in0.0 mm 0.00 in0.0 mm 0.00 in0.0 mm
01:45 AM 25.0°F-3.9°C 20.3°F-6.5°C 82% 1.0 mph NE1.6 kmh NE 3.0 mph4.8 kmh 30.07 in1018.3 mb 0.00 in0.0 mm 0.00 in0.0 mm 0.00 in0.0 mm
02:00 AM 24.8°F-4.0°C 20.1°F-6.6°C 82% Calm Calm 2.0 mph3.2 kmh 30.07 in1018.3 mb 0.00 in0.0 mm 0.00 in0.0 mm 0.00 in0.0 mm
02:15 AM 24.3°F-4.3°C 19.6°F-6.9°C 82% Calm Calm 3.0 mph4.8 kmh 30.07 in1018.3 mb 0.00 in0.0 mm 0.00 in0.0 mm 0.00 in0.0 mm
02:30 AM 23.9°F-4.5°C 19.8°F-6.8°C 84% 1.0 mph NE1.6 kmh NE 2.0 mph3.2 kmh 30.07 in1018.3 mb 0.00 in0.0 mm 0.00 in0.0 mm 0.00 in0.0 mm
02:45 AM 23.5°F-4.7°C 19.4°F-7.0°C 84% Calm Calm 2.0 mph3.2 kmh 30.06 in1017.9 mb 0.00 in0.0 mm 0.00 in0.0 mm 0.00 in0.0 mm
03:00 AM 23.4°F-4.8°C 19.2°F-7.1°C 84% 1.0 mph NE1.6 kmh NE 1.0 mph1.6 kmh 30.06 in1017.9 mb 0.00 in0.0 mm 0.00 in0.0 mm 0.00 in0.0 mm
03:15 AM 22.8°F-5.1°C 19.0°F-7.2°C 85% Calm Calm 2.0 mph3.2 kmh 30.06 in1017.9 mb 0.00 in0.0 mm 0.00 in0.0 mm 0.00 in0.0 mm
03:30 AM 22.8°F-5.1°C 19.3°F-7.1°C 86% 1.0 mph NE1.6 kmh NE 2.0 mph3.2 kmh 30.05 in1017.6 mb 0.00 in0.0 mm 0.00 in0.0 mm 0.00 in0.0 mm
03:45 AM 23.2°F-4.9°C 19.6°F-6.9°C 86% 1.0 mph NE1.6 kmh NE 2.0 mph3.2 kmh 30.05 in1017.6 mb 0.00 in0.0 mm 0.00 in0.0 mm 0.00 in0.0 mm
04:00 AM 23.2°F-4.9°C 19.6°F-6.9°C 86% 1.0 mph NE1.6 kmh NE 2.0 mph3.2 kmh 30.05 in1017.6 mb 0.00 in0.0 mm 0.00 in0.0 mm 0.00 in0.0 mm
04:15 AM 23.0°F-5.0°C 19.7°F-6.8°C 87% 1.0 mph NE1.6 kmh NE 2.0 mph3.2 kmh 30.05 in1017.6 mb 0.00 in0.0 mm 0.00 in0.0 mm 0.00 in0.0 mm
04:30 AM 23.0°F-5.0°C 19.7°F-6.8°C 87% 1.0 mph NE1.6 kmh NE 3.0 mph4.8 kmh 30.05 in1017.6 mb 0.00 in0.0 mm 0.00 in0.0 mm 0.00 in0.0 mm
04:45 AM 22.6°F-5.2°C 19.4°F-7.0°C 87% Calm Calm 2.0 mph3.2 kmh 30.05 in1017.6 mb 0.00 in0.0 mm 0.00 in0.0 mm 0.00 in0.0 mm
05:00 AM 22.5°F-5.3°C 19.2°F-7.1°C 87% 1.0 mph NE1.6 kmh NE 2.0 mph3.2 kmh 30.05 in1017.6 mb 0.00 in0.0 mm 0.00 in0.0 mm 0.00 in0.0 mm
05:15 AM 22.1°F-5.5°C 18.8°F-7.3°C 87% Calm Calm 1.0 mph1.6 kmh 30.05 in1017.6 mb 0.00 in0.0 mm 0.00 in0.0 mm 0.00 in0.0 mm
05:30 AM 22.1°F-5.5°C 18.8°F-7.3°C 87% Calm Calm -- 30.06 in1017.9 mb 0.00 in0.0 mm 0.00 in0.0 mm 0.00 in0.0 mm
05:45 AM 22.3°F-5.4°C 19.0°F-7.2°C 87% Calm Calm -- 30.05 in1017.6 mb 0.00 in0.0 mm 0.00 in0.0 mm 0.00 in0.0 mm
06:00 AM 22.5°F-5.3°C 18.9°F-7.3°C 86% Calm Calm 1.0 mph1.6 kmh 30.05 in1017.6 mb 0.00 in0.0 mm 0.00 in0.0 mm 0.00 in0.0 mm
06:15 AM 22.3°F-5.4°C 18.5°F-7.5°C 85% Calm Calm 1.0 mph1.6 kmh 30.05 in1017.6 mb 0.00 in0.0 mm 0.00 in0.0 mm 0.00 in0.0 mm
06:30 AM 22.1°F-5.5°C 18.6°F-7.4°C 86% Calm Calm -- 30.06 in1017.9 mb 0.00 in0.0 mm 0.00 in0.0 mm 0.00 in0.0 mm
06:45 AM 22.5°F-5.3°C 18.9°F-7.3°C 86% Calm Calm -- 30.06 in1017.9 mb 0.00 in0.0 mm 0.00 in0.0 mm 0.00 in0.0 mm
07:00 AM 22.6°F-5.2°C 18.8°F-7.3°C 85% Calm Calm -- 30.06 in1017.9 mb 0.00 in0.0 mm 0.00 in0.0 mm 0.00 in0.0 mm
07:15 AM 22.5°F-5.3°C 18.9°F-7.3°C 86% Calm Calm -- 30.06 in1017.9 mb 0.00 in0.0 mm 0.00 in0.0 mm 0.00 in0.0 mm
07:30 AM 21.9°F-5.6°C 18.6°F-7.4°C 87% Calm Calm -- 30.05 in1017.6 mb 0.00 in0.0 mm 0.00 in0.0 mm 0.00 in0.0 mm
07:45 AM 22.6°F-5.2°C 19.4°F-7.0°C 87% Calm Calm 1.0 mph1.6 kmh 30.05 in1017.6 mb 0.00 in0.0 mm 0.00 in0.0 mm 0.00 in0.0 mm
08:00 AM 23.2°F-4.9°C 19.9°F-6.7°C 87% 1.0 mph NE1.6 kmh NE 2.0 mph3.2 kmh 30.05 in1017.6 mb 0.00 in0.0 mm 0.00 in0.0 mm 0.00 in0.0 mm
08:15 AM 24.1°F-4.4°C 20.8°F-6.2°C 87% Calm Calm 1.0 mph1.6 kmh 30.05 in1017.6 mb 0.00 in0.0 mm 0.00 in0.0 mm 0.00 in0.0 mm
08:30 AM 25.0°F-3.9°C 21.7°F-5.7°C 87% Calm Calm 1.0 mph1.6 kmh 30.05 in1017.6 mb 0.00 in0.0 mm 0.00 in0.0 mm 0.00 in0.0 mm
08:45 AM 26.2°F-3.2°C 22.6°F-5.2°C 86% Calm Calm 2.0 mph3.2 kmh 30.05 in1017.6 mb 0.00 in0.0 mm 0.00 in0.0 mm 0.00 in0.0 mm
09:00 AM 27.3°F-2.6°C 23.4°F-4.8°C 85% Calm Calm -- 30.05 in1017.6 mb 0.00 in0.0 mm 0.00 in0.0 mm 0.00 in0.0 mm
09:15 AM 28.4°F-2.0°C 24.2°F-4.3°C 84% Calm Calm 2.0 mph3.2 kmh 30.05 in1017.6 mb 0.00 in0.0 mm 0.00 in0.0 mm 0.00 in0.0 mm
09:30 AM 29.5°F-1.4°C 25.0°F-3.9°C 83% Calm Calm 2.0 mph3.2 kmh 30.05 in1017.6 mb 0.00 in0.0 mm 0.00 in0.0 mm 0.00 in0.0 mm
09:45 AM 30.7°F-0.7°C 25.0°F-3.9°C 79% 1.0 mph NE1.6 kmh NE 4.0 mph6.4 kmh 30.05 in1017.6 mb 0.00 in0.0 mm 0.00 in0.0 mm 0.00 in0.0 mm
10:00 AM 32.0°F0.0°C 26.2°F-3.2°C 79% 1.0 mph NE1.6 kmh NE 3.0 mph4.8 kmh 30.05 in1017.6 mb 0.00 in0.0 mm 0.00 in0.0 mm 0.00 in0.0 mm
10:15 AM 33.1°F0.6°C 26.7°F-2.9°C 77% 1.0 mph NE1.6 kmh NE 3.0 mph4.8 kmh 30.06 in1017.9 mb 0.00 in0.0 mm 0.00 in0.0 mm 0.00 in0.0 mm
10:30 AM 34.0°F1.1°C 27.2°F-2.7°C 76% 1.0 mph NE1.6 kmh NE 4.0 mph6.4 kmh 30.05 in1017.6 mb 0.00 in0.0 mm 0.00 in0.0 mm 0.00 in0.0 mm
10:45 AM 33.6°F0.9°C 26.2°F-3.2°C 74% 2.0 mph ENE3.2 kmh ENE 5.0 mph8.0 kmh 30.06 in1017.9 mb 0.00 in0.0 mm 0.00 in0.0 mm 0.00 in0.0 mm
11:00 AM 33.1°F0.6°C 25.7°F-3.5°C 74% 3.0 mph SSW4.8 kmh SSW 7.0 mph11.3 kmh 30.05 in1017.6 mb 0.00 in0.0 mm 0.00 in0.0 mm 0.00 in0.0 mm
11:15 AM 32.7°F0.4°C 26.0°F-3.3°C 76% 3.0 mph SSW4.8 kmh SSW 7.0 mph11.3 kmh 30.05 in1017.6 mb 0.00 in0.0 mm 0.00 in0.0 mm 0.00 in0.0 mm
11:30 AM 33.3°F0.7°C 26.5°F-3.1°C 76% 2.0 mph SSW3.2 kmh SSW 6.0 mph9.7 kmh 30.05 in1017.6 mb 0.00 in0.0 mm 0.00 in0.0 mm 0.00 in0.0 mm
11:45 AM 33.4°F0.8°C 26.0°F-3.3°C 74% 2.0 mph SSW3.2 kmh SSW 7.0 mph11.3 kmh 30.05 in1017.6 mb 0.00 in0.0 mm 0.00 in0.0 mm 0.00 in0.0 mm
12:00 PM 33.6°F0.9°C 26.2°F-3.2°C 74% 2.0 mph SSW3.2 kmh SSW 7.0 mph11.3 kmh 30.04 in1017.3 mb 0.00 in0.0 mm 0.00 in0.0 mm 0.00 in0.0 mm
12:15 PM 33.6°F0.9°C 25.9°F-3.4°C 73% 3.0 mph SSW4.8 kmh SSW 6.0 mph9.7 kmh 30.04 in1017.3 mb 0.00 in0.0 mm 0.00 in0.0 mm 0.00 in0.0 mm
12:30 PM 34.0°F1.1°C 25.9°F-3.4°C 72% 3.0 mph SSW4.8 kmh SSW 6.0 mph9.7 kmh 30.04 in1017.3 mb 0.00 in0.0 mm 0.00 in0.0 mm 0.00 in0.0 mm
12:45 PM 34.3°F1.3°C 26.2°F-3.2°C 72% 3.0 mph SSW4.8 kmh SSW 7.0 mph11.3 kmh 30.04 in1017.3 mb 0.00 in0.0 mm 0.00 in0.0 mm 0.00 in0.0 mm
01:00 PM 35.1°F1.7°C 25.6°F-3.6°C 68% 2.0 mph SSW3.2 kmh SSW 6.0 mph9.7 kmh 30.04 in1017.3 mb 0.00 in0.0 mm 0.00 in0.0 mm 0.00 in0.0 mm
01:15 PM 34.5°F1.4°C 24.3°F-4.3°C 66% 4.0 mph SSW6.4 kmh SSW 7.0 mph11.3 kmh 30.04 in1017.3 mb 0.00 in0.0 mm 0.00 in0.0 mm 0.00 in0.0 mm
01:30 PM 34.9°F1.6°C 24.7°F-4.1°C 66% 3.0 mph SW4.8 kmh SW 7.0 mph11.3 kmh 30.04 in1017.3 mb 0.00 in0.0 mm 0.00 in0.0 mm 0.00 in0.0 mm
01:45 PM 35.6°F2.0°C 24.6°F-4.1°C 64% 4.0 mph SW6.4 kmh SW 9.0 mph14.5 kmh 30.04 in1017.3 mb 0.00 in0.0 mm 0.00 in0.0 mm 0.00 in0.0 mm
02:00 PM 35.4°F1.9°C 24.1°F-4.4°C 63% 5.0 mph SW8.0 kmh SW 9.0 mph14.5 kmh 30.04 in1017.3 mb 0.00 in0.0 mm 0.00 in0.0 mm 0.00 in0.0 mm
02:15 PM 35.8°F2.1°C 23.6°F-4.7°C 61% 4.0 mph SSW6.4 kmh SSW 7.0 mph11.3 kmh 30.04 in1017.3 mb 0.00 in0.0 mm 0.00 in0.0 mm 0.00 in0.0 mm
02:30 PM 35.2°F1.8°C 23.1°F-4.9°C 61% 4.0 mph SW6.4 kmh SW 8.0 mph12.9 kmh 30.04 in1017.3 mb 0.00 in0.0 mm 0.00 in0.0 mm 0.00 in0.0 mm
02:45 PM 34.9°F1.6°C 23.2°F-4.9°C 62% 4.0 mph SW6.4 kmh SW 8.0 mph12.9 kmh 30.04 in1017.3 mb 0.00 in0.0 mm 0.00 in0.0 mm 0.00 in0.0 mm
03:00 PM 34.9°F1.6°C 23.2°F-4.9°C 62% 4.0 mph SW6.4 kmh SW 8.0 mph12.9 kmh 30.05 in1017.6 mb 0.00 in0.0 mm 0.00 in0.0 mm 0.00 in0.0 mm
03:15 PM 34.9°F1.6°C 23.6°F-4.7°C 63% 4.0 mph SW6.4 kmh SW 8.0 mph12.9 kmh 30.05 in1017.6 mb 0.00 in0.0 mm 0.00 in0.0 mm 0.00 in0.0 mm
03:30 PM 34.5°F1.4°C 23.6°F-4.7°C 64% 4.0 mph SW6.4 kmh SW 8.0 mph12.9 kmh 30.05 in1017.6 mb 0.00 in0.0 mm 0.00 in0.0 mm 0.00 in0.0 mm
03:45 PM 34.3°F1.3°C 23.8°F-4.6°C 65% 4.0 mph SSW6.4 kmh SSW 7.0 mph11.3 kmh 30.05 in1017.6 mb 0.00 in0.0 mm 0.00 in0.0 mm 0.00 in0.0 mm
04:00 PM 34.2°F1.2°C 23.6°F-4.7°C 65% 3.0 mph SSW4.8 kmh SSW 7.0 mph11.3 kmh 30.05 in1017.6 mb 0.00 in0.0 mm 0.00 in0.0 mm 0.00 in0.0 mm
04:15 PM 34.0°F1.1°C 23.8°F-4.6°C 66% 4.0 mph SW6.4 kmh SW 8.0 mph12.9 kmh 30.05 in1017.6 mb 0.00 in0.0 mm 0.00 in0.0 mm 0.00 in0.0 mm
04:30 PM 33.6°F0.9°C 23.5°F-4.7°C 66% 4.0 mph SW6.4 kmh SW 8.0 mph12.9 kmh 30.05 in1017.6 mb 0.00 in0.0 mm 0.00 in0.0 mm 0.00 in0.0 mm
04:45 PM 33.4°F0.8°C 24.0°F-4.4°C 68% 4.0 mph SSW6.4 kmh SSW 7.0 mph11.3 kmh 30.05 in1017.6 mb 0.00 in0.0 mm 0.00 in0.0 mm 0.00 in0.0 mm
05:00 PM 33.3°F0.7°C 23.8°F-4.6°C 68% 3.0 mph SSW4.8 kmh SSW 7.0 mph11.3 kmh 30.06 in1017.9 mb 0.00 in0.0 mm 0.00 in0.0 mm 0.00 in0.0 mm
05:15 PM 33.1°F0.6°C 24.0°F-4.4°C 69% 4.0 mph SW6.4 kmh SW 8.0 mph12.9 kmh 30.06 in1017.9 mb 0.00 in0.0 mm 0.00 in0.0 mm 0.00 in0.0 mm
05:30 PM 33.1°F0.6°C 24.4°F-4.2°C 70% 4.0 mph SSW6.4 kmh SSW 8.0 mph12.9 kmh 30.06 in1017.9 mb 0.00 in0.0 mm 0.00 in0.0 mm 0.00 in0.0 mm
05:45 PM 32.7°F0.4°C 24.3°F-4.3°C 71% 4.0 mph SSW6.4 kmh SSW 8.0 mph12.9 kmh 30.06 in1017.9 mb 0.00 in0.0 mm 0.00 in0.0 mm 0.00 in0.0 mm
06:00 PM 32.2°F0.1°C 24.2°F-4.3°C 72% 4.0 mph SW6.4 kmh SW 8.0 mph12.9 kmh 30.07 in1018.3 mb 0.00 in0.0 mm 0.00 in0.0 mm 0.00 in0.0 mm
06:15 PM 31.6°F-0.2°C 24.0°F-4.4°C 73% 3.0 mph SW4.8 kmh SW 7.0 mph11.3 kmh 30.07 in1018.3 mb 0.00 in0.0 mm 0.00 in0.0 mm 0.00 in0.0 mm
06:30 PM 31.6°F-0.2°C 24.3°F-4.3°C 74% 3.0 mph SW4.8 kmh SW 8.0 mph12.9 kmh 30.07 in1018.3 mb 0.00 in0.0 mm 0.00 in0.0 mm 0.00 in0.0 mm
06:45 PM 31.8°F-0.1°C 24.5°F-4.2°C 74% 3.0 mph SW4.8 kmh SW 8.0 mph12.9 kmh 30.08 in1018.6 mb 0.00 in0.0 mm 0.00 in0.0 mm 0.00 in0.0 mm
07:00 PM 32.0°F0.0°C 24.3°F-4.3°C 73% 4.0 mph SSW6.4 kmh SSW 7.0 mph11.3 kmh 30.08 in1018.6 mb 0.00 in0.0 mm 0.00 in0.0 mm 0.00 in0.0 mm
07:15 PM 31.6°F-0.2°C 24.3°F-4.3°C 74% 3.0 mph SSW4.8 kmh SSW 7.0 mph11.3 kmh 30.08 in1018.6 mb 0.00 in0.0 mm 0.00 in0.0 mm 0.00 in0.0 mm
07:30 PM 31.3°F-0.4°C 24.0°F-4.4°C 74% 3.0 mph SW4.8 kmh SW 7.0 mph11.3 kmh 30.08 in1018.6 mb 0.00 in0.0 mm 0.00 in0.0 mm 0.00 in0.0 mm
07:45 PM 31.3°F-0.4°C 24.3°F-4.3°C 75% 4.0 mph SW6.4 kmh SW 11.0 mph17.7 kmh 30.08 in1018.6 mb 0.00 in0.0 mm 0.00 in0.0 mm 0.00 in0.0 mm
08:00 PM 31.5°F-0.3°C 24.1°F-4.4°C 74% 5.0 mph SW8.0 kmh SW 9.0 mph14.5 kmh 30.08 in1018.6 mb 0.00 in0.0 mm 0.00 in0.0 mm 0.00 in0.0 mm
08:15 PM 31.8°F-0.1°C 23.8°F-4.6°C 72% 5.0 mph SW8.0 kmh SW 10.0 mph16.1 kmh 30.08 in1018.6 mb 0.00 in0.0 mm 0.00 in0.0 mm 0.00 in0.0 mm
08:30 PM 31.8°F-0.1°C 23.8°F-4.6°C 72% 4.0 mph SW6.4 kmh SW 9.0 mph14.5 kmh 30.08 in1018.6 mb 0.00 in0.0 mm 0.00 in0.0 mm 0.00 in0.0 mm
08:45 PM 31.8°F-0.1°C 24.1°F-4.4°C 73% 4.0 mph SW6.4 kmh SW 9.0 mph14.5 kmh 30.07 in1018.3 mb 0.00 in0.0 mm 0.00 in0.0 mm 0.00 in0.0 mm
09:00 PM 32.0°F0.0°C 24.0°F-4.4°C 72% 4.0 mph SW6.4 kmh SW 12.0 mph19.3 kmh 30.07 in1018.3 mb 0.00 in0.0 mm 0.00 in0.0 mm 0.00 in0.0 mm
09:15 PM 32.2°F0.1°C 24.2°F-4.3°C 72% 4.0 mph SW6.4 kmh SW 11.0 mph17.7 kmh 30.07 in1018.3 mb 0.00 in0.0 mm 0.00 in0.0 mm 0.00 in0.0 mm
09:30 PM 32.4°F0.2°C 24.0°F-4.4°C 71% 4.0 mph SW6.4 kmh SW 8.0 mph12.9 kmh 30.07 in1018.3 mb 0.00 in0.0 mm 0.00 in0.0 mm 0.00 in0.0 mm
09:45 PM 32.4°F0.2°C 23.7°F-4.6°C 70% 4.0 mph SW6.4 kmh SW 10.0 mph16.1 kmh 30.07 in1018.3 mb 0.00 in0.0 mm 0.00 in0.0 mm 0.00 in0.0 mm
10:00 PM 32.4°F0.2°C 23.7°F-4.6°C 70% 4.0 mph SW6.4 kmh SW 9.0 mph14.5 kmh 30.07 in1018.3 mb 0.00 in0.0 mm 0.00 in0.0 mm 0.00 in0.0 mm
10:15 PM 32.4°F0.2°C 24.0°F-4.4°C 71% 5.0 mph SW8.0 kmh SW 12.0 mph19.3 kmh 30.07 in1018.3 mb 0.00 in0.0 mm 0.00 in0.0 mm 0.00 in0.0 mm
10:30 PM 32.5°F0.3°C 24.8°F-4.0°C 73% 5.0 mph SW8.0 kmh SW 10.0 mph16.1 kmh 30.08 in1018.6 mb 0.00 in0.0 mm 0.00 in0.0 mm 0.00 in0.0 mm
10:45 PM 32.7°F0.4°C 25.3°F-3.7°C 74% 4.0 mph WSW6.4 kmh WSW 8.0 mph12.9 kmh 30.08 in1018.6 mb 0.00 in0.0 mm 0.00 in0.0 mm 0.00 in0.0 mm
11:00 PM 32.7°F0.4°C 26.0°F-3.3°C 76% 4.0 mph SW6.4 kmh SW 9.0 mph14.5 kmh 30.07 in1018.3 mb 0.00 in0.0 mm 0.00 in0.0 mm 0.00 in0.0 mm
11:15 PM 32.7°F0.4°C 26.0°F-3.3°C 76% 3.0 mph SW4.8 kmh SW 8.0 mph12.9 kmh 30.07 in1018.3 mb 0.00 in0.0 mm 0.00 in0.0 mm 0.00 in0.0 mm
11:30 PM 32.7°F0.4°C 26.3°F-3.2°C 77% 5.0 mph SW8.0 kmh SW 10.0 mph16.1 kmh 30.06 in1017.9 mb 0.00 in0.0 mm 0.00 in0.0 mm 0.00 in0.0 mm
11:45 PM 32.7°F0.4°C 26.3°F-3.2°C 77% 3.0 mph SW4.8 kmh SW 7.0 mph11.3 kmh 30.06 in1017.9 mb 0.00 in0.0 mm 0.00 in0.0 mm 0.00 in0.0 mm